Time;durP1;ratioP1;P1;durP2;ratioP2;P2;SDS_P1;SDS_P2;PMS_P1;PMS_P2;Temp;Humidity;BMP_temperature;BMP_pressure;BME280_temperature;BME280_humidity;BME280_pressure;Samples;Min_cycle;Max_cycle;Signal;HPM_P1;HPM_P2
2022/08/21 00:02:16;;;;;;;3.90;3.60;;;;;;;;;;5071908;28;20616;-77
2022/08/21 00:04:43;;;;;;;7.13;3.97;;;;;;;;;;5073491;28;20452;-76
2022/08/21 00:07:10;;;;;;;5.30;3.80;;;;;;;;;;5073617;28;20558;-77
2022/08/21 00:09:37;;;;;;;4.00;3.60;;;;;;;;;;5073201;28;20547;-77
2022/08/21 00:12:05;;;;;;;6.33;3.70;;;;;;;;;;5092935;28;20497;-76
2022/08/21 00:14:33;;;;;;;5.23;3.40;;;;;;;;;;5093779;28;20538;-75
2022/08/21 00:17:00;;;;;;;5.40;3.93;;;;;;;;;;5093999;28;20485;-76
2022/08/21 00:19:29;;;;;;;4.60;4.17;;;;;;;;;;5086224;28;20892;-76
2022/08/21 00:21:56;;;;;;;5.43;4.80;;;;;;;;;;5085298;28;20536;-77
2022/08/21 00:24:24;;;;;;;4.60;4.13;;;;;;;;;;5084987;28;20710;-75
2022/08/21 00:26:51;;;;;;;11.37;3.67;;;;;;;;;;5082064;28;20877;-76
2022/08/21 00:29:18;;;;;;;4.50;3.77;;;;;;;;;;5072908;28;20827;-76
2022/08/21 00:31:45;;;;;;;6.70;3.87;;;;;;;;;;5072090;28;20494;-76
2022/08/21 00:34:14;;;;;;;4.70;3.80;;;;;;;;;;5085703;28;20448;-76
2022/08/21 00:36:42;;;;;;;4.47;3.70;;;;;;;;;;5091982;28;20994;-77
2022/08/21 00:39:10;;;;;;;5.20;3.90;;;;;;;;;;5092108;28;20452;-76
2022/08/21 00:41:38;;;;;;;3.97;3.67;;;;;;;;;;5092009;28;20439;-76
2022/08/21 00:44:05;;;;;;;6.37;3.97;;;;;;;;;;5091423;28;20987;-77
2022/08/21 00:46:32;;;;;;;5.83;4.03;;;;;;;;;;5091931;28;20517;-76
2022/08/21 00:49:00;;;;;;;3.77;3.47;;;;;;;;;;5091972;28;20448;-76
2022/08/21 00:51:29;;;;;;;4.30;3.90;;;;;;;;;;5091819;28;20493;-77
2022/08/21 00:54:01;;;;;;;4.07;3.50;;;;;;;;;;5091742;28;20817;-76
2022/08/21 00:56:29;;;;;;;4.10;3.70;;;;;;;;;;5091616;28;20524;-77
2022/08/21 00:58:58;;;;;;;4.10;3.70;;;;;;;;;;5091573;28;20507;-77
2022/08/21 01:01:25;;;;;;;5.07;3.77;;;;;;;;;;5092977;28;20444;-76
2022/08/21 01:03:52;;;;;;;3.97;3.60;;;;;;;;;;5092192;28;20826;-77
2022/08/21 01:06:19;;;;;;;3.93;3.50;;;;;;;;;;5092404;28;20509;-77
2022/08/21 01:08:46;;;;;;;4.73;3.90;;;;;;;;;;5091550;28;20444;-76
2022/08/21 01:11:15;;;;;;;4.43;4.03;;;;;;;;;;5078980;28;20451;-76
2022/08/21 01:13:45;;;;;;;6.70;4.07;;;;;;;;;;5070843;28;20441;-75
2022/08/21 01:16:12;;;;;;;4.77;4.27;;;;;;;;;;5071102;28;20496;-75
2022/08/21 01:18:39;;;;;;;4.97;3.50;;;;;;;;;;5071364;28;20933;-75
2022/08/21 01:21:09;;;;;;;4.67;3.50;;;;;;;;;;5071031;28;20441;-76
2022/08/21 01:23:38;;;;;;;4.53;4.00;;;;;;;;;;5070452;28;20496;-76
2022/08/21 01:26:05;;;;;;;4.27;3.87;;;;;;;;;;5070803;28;20464;-75
2022/08/21 01:28:35;;;;;;;4.20;3.73;;;;;;;;;;5070754;28;21027;-76
2022/08/21 01:31:03;;;;;;;5.37;4.53;;;;;;;;;;5070872;28;20850;-76
2022/08/21 01:33:30;;;;;;;4.83;4.23;;;;;;;;;;5070801;28;20494;-76
2022/08/21 01:35:57;;;;;;;4.40;3.97;;;;;;;;;;5071024;28;21032;-75
2022/08/21 01:38:26;;;;;;;4.03;3.63;;;;;;;;;;5070965;28;20448;-75
2022/08/21 01:40:53;;;;;;;4.90;3.60;;;;;;;;;;5071051;28;20441;-77
2022/08/21 01:43:20;;;;;;;4.80;3.73;;;;;;;;;;5072470;28;20480;-76
2022/08/21 01:45:47;;;;;;;6.50;4.13;;;;;;;;;;5090598;28;20472;-76
2022/08/21 01:48:14;;;;;;;4.13;3.73;;;;;;;;;;5090697;28;20858;-76
2022/08/21 01:50:41;;;;;;;5.53;3.93;;;;;;;;;;5091550;28;20811;-75
2022/08/21 01:53:08;;;;;;;5.20;3.63;;;;;;;;;;5091038;28;20440;-76
2022/08/21 01:55:37;;;;;;;3.87;3.47;;;;;;;;;;5091595;28;20467;-76
2022/08/21 01:58:04;;;;;;;5.07;3.90;;;;;;;;;;5091153;28;20428;-76
2022/08/21 02:00:31;;;;;;;6.03;4.47;;;;;;;;;;5091820;28;20456;-76
2022/08/21 02:02:58;;;;;;;3.83;3.53;;;;;;;;;;5090851;28;20475;-75
2022/08/21 02:05:25;;;;;;;4.63;4.20;;;;;;;;;;5091231;28;20460;-76
2022/08/21 02:07:53;;;;;;;4.03;3.73;;;;;;;;;;5091086;28;20991;-76
2022/08/21 02:10:21;;;;;;;4.27;3.97;;;;;;;;;;5091388;28;20473;-75
2022/08/21 02:12:50;;;;;;;4.87;3.87;;;;;;;;;;5091169;28;20451;-75
2022/08/21 02:15:18;;;;;;;5.90;4.43;;;;;;;;;;5091448;28;20555;-76
2022/08/21 02:17:46;;;;;;;4.30;3.90;;;;;;;;;;5091050;28;20517;-76
2022/08/21 02:20:17;;;;;;;3.57;3.27;;;;;;;;;;5091101;28;20805;-77
2022/08/21 02:22:44;;;;;;;4.93;3.80;;;;;;;;;;5090862;28;20533;-75
2022/08/21 02:25:12;;;;;;;4.00;3.70;;;;;;;;;;5090073;28;20497;-77
2022/08/21 02:27:41;;;;;;;4.33;3.90;;;;;;;;;;5090974;28;20513;-77
2022/08/21 02:30:11;;;;;;;4.93;4.50;;;;;;;;;;5090662;28;20450;-77
2022/08/21 02:32:38;;;;;;;4.20;3.90;;;;;;;;;;5090457;28;20447;-76
2022/08/21 02:35:06;;;;;;;4.07;3.73;;;;;;;;;;5090950;28;20436;-76
2022/08/21 02:37:33;;;;;;;6.00;4.00;;;;;;;;;;5091455;28;20502;-76
2022/08/21 02:40:00;;;;;;;7.30;4.10;;;;;;;;;;5090795;28;20517;-76
2022/08/21 02:42:28;;;;;;;4.60;4.00;;;;;;;;;;5090245;28;20551;-76
2022/08/21 02:44:55;;;;;;;4.87;4.47;;;;;;;;;;5090201;28;20444;-76
2022/08/21 02:47:23;;;;;;;4.93;4.13;;;;;;;;;;5090051;28;20534;-77
2022/08/21 02:49:50;;;;;;;4.37;3.83;;;;;;;;;;5090409;28;20432;-76
2022/08/21 02:52:17;;;;;;;4.30;3.90;;;;;;;;;;5090299;28;20449;-76
2022/08/21 02:54:44;;;;;;;4.43;4.00;;;;;;;;;;5090071;28;20497;-76
2022/08/21 02:57:11;;;;;;;4.07;3.67;;;;;;;;;;5090575;28;20906;-76
2022/08/21 02:59:39;;;;;;;5.73;3.60;;;;;;;;;;5090396;28;20492;-77
2022/08/21 03:02:06;;;;;;;3.90;3.60;;;;;;;;;;5090141;28;20961;-76
2022/08/21 03:04:34;;;;;;;5.50;4.10;;;;;;;;;;5089932;28;20528;-77
2022/08/21 03:07:01;;;;;;;3.90;3.70;;;;;;;;;;5090202;28;20540;-77
2022/08/21 03:09:28;;;;;;;3.87;3.57;;;;;;;;;;5090642;28;20446;-76
2022/08/21 03:11:55;;;;;;;4.70;4.30;;;;;;;;;;5071909;28;20448;-76
2022/08/21 03:14:22;;;;;;;3.97;3.67;;;;;;;;;;5069534;28;20455;-77
2022/08/21 03:16:49;;;;;;;4.93;4.13;;;;;;;;;;5069960;28;20460;-75
2022/08/21 03:19:16;;;;;;;4.03;3.73;;;;;;;;;;5069929;28;20449;-76
2022/08/21 03:21:45;;;;;;;6.07;4.27;;;;;;;;;;5069758;28;20449;-76
2022/08/21 03:24:12;;;;;;;3.93;3.63;;;;;;;;;;5069583;28;20884;-76
2022/08/21 03:26:39;;;;;;;5.07;3.80;;;;;;;;;;5069729;28;20464;-75
2022/08/21 03:29:07;;;;;;;7.70;3.47;;;;;;;;;;5069630;28;20937;-76
2022/08/21 03:31:34;;;;;;;5.00;3.97;;;;;;;;;;5069679;28;20451;-76
2022/08/21 03:34:01;;;;;;;5.13;3.97;;;;;;;;;;5069496;28;20458;-76
2022/08/21 03:36:28;;;;;;;5.00;4.60;;;;;;;;;;5072458;28;20460;-76
2022/08/21 03:38:56;;;;;;;5.87;4.33;;;;;;;;;;5073779;28;20440;-76
2022/08/21 03:41:23;;;;;;;4.43;3.93;;;;;;;;;;5073486;28;20510;-77
2022/08/21 03:43:50;;;;;;;3.97;3.63;;;;;;;;;;5073533;28;20982;-76
2022/08/21 03:46:17;;;;;;;7.93;4.43;;;;;;;;;;5073663;28;20468;-77
2022/08/21 03:48:44;;;;;;;4.67;4.30;;;;;;;;;;5073668;28;20440;-75
2022/08/21 03:51:11;;;;;;;4.90;4.50;;;;;;;;;;5073415;28;20437;-76
2022/08/21 03:53:39;;;;;;;4.43;4.03;;;;;;;;;;5073314;28;20452;-75
2022/08/21 03:56:07;;;;;;;4.13;3.83;;;;;;;;;;5073047;28;20469;-76
2022/08/21 03:58:35;;;;;;;4.70;4.30;;;;;;;;;;5073609;28;20498;-76
2022/08/21 04:01:02;;;;;;;4.47;3.93;;;;;;;;;;5073307;28;20444;-76
2022/08/21 04:03:29;;;;;;;4.07;3.67;;;;;;;;;;5073051;28;20480;-76
2022/08/21 04:05:57;;;;;;;6.20;3.70;;;;;;;;;;5073261;28;20816;-75
2022/08/21 04:08:24;;;;;;;4.40;4.10;;;;;;;;;;5073047;28;20456;-75
2022/08/21 04:10:52;;;;;;;5.20;4.60;;;;;;;;;;5082374;28;20451;-76
2022/08/21 04:13:21;;;;;;;7.20;4.70;;;;;;;;;;5093402;28;20439;-76
2022/08/21 04:15:49;;;;;;;4.33;3.90;;;;;;;;;;5093827;28;20459;-76
2022/08/21 04:18:16;;;;;;;5.43;4.03;;;;;;;;;;5093454;28;20443;-76
2022/08/21 04:20:44;;;;;;;4.37;4.07;;;;;;;;;;5093505;28;20439;-75
2022/08/21 04:23:11;;;;;;;4.30;3.90;;;;;;;;;;5092660;28;20451;-76
2022/08/21 04:25:38;;;;;;;5.70;4.23;;;;;;;;;;5092863;28;20524;-76
2022/08/21 04:28:05;;;;;;;4.37;4.07;;;;;;;;;;5093041;28;20444;-76
2022/08/21 04:30:34;;;;;;;3.93;3.70;;;;;;;;;;5093186;28;20773;-76
2022/08/21 04:33:01;;;;;;;4.60;4.30;;;;;;;;;;5092908;28;20444;-77
2022/08/21 04:35:29;;;;;;;4.77;4.37;;;;;;;;;;5093106;28;20961;-75
2022/08/21 04:37:56;;;;;;;4.20;3.80;;;;;;;;;;5094170;28;20528;-76
2022/08/21 04:40:25;;;;;;;4.60;4.17;;;;;;;;;;5095645;28;20444;-76
2022/08/21 04:42:53;;;;;;;3.80;3.50;;;;;;;;;;5094963;28;20483;-76
2022/08/21 04:45:22;;;;;;;4.57;4.17;;;;;;;;;;5086457;28;20484;-75
2022/08/21 04:47:51;;;;;;;4.60;4.20;;;;;;;;;;5095694;28;20436;-74
2022/08/21 04:50:19;;;;;;;8.50;6.50;;;;;;;;;;5096503;28;20481;-76
2022/08/21 04:52:46;;;;;;;6.50;5.20;;;;;;;;;;5096142;28;20504;-76
2022/08/21 04:55:13;;;;;;;5.60;4.70;;;;;;;;;;5096500;28;21007;-76
2022/08/21 04:57:41;;;;;;;4.50;4.10;;;;;;;;;;5098140;28;20481;-76
2022/08/21 05:00:10;;;;;;;4.47;4.07;;;;;;;;;;5099564;28;20452;-75
2022/08/21 05:02:37;;;;;;;5.00;4.60;;;;;;;;;;5098714;28;20493;-76
2022/08/21 05:05:06;;;;;;;4.83;4.43;;;;;;;;;;5098569;28;20483;-75
2022/08/21 05:07:34;;;;;;;5.57;4.40;;;;;;;;;;5099078;28;20451;-76
2022/08/21 05:10:01;;;;;;;4.50;3.90;;;;;;;;;;5100030;28;20566;-76
2022/08/21 05:12:44;;;;;;;4.63;4.00;;;;;;;;;;5100032;28;20440;-75
2022/08/21 05:18:15;;;;;;;6.23;4.30;;;;;;;;;;5086114;28;20477;-76
2022/08/21 05:24:04;;;;;;;6.23;3.87;;;;;;;;;;5058132;28;20472;-76
2022/08/21 05:26:32;;;;;;;4.13;3.53;;;;;;;;;;5096188;28;20859;-76
2022/08/21 05:28:59;;;;;;;4.30;3.73;;;;;;;;;;5093866;28;20450;-75
2022/08/21 05:31:26;;;;;;;6.50;3.80;;;;;;;;;;5090371;28;20449;-76
2022/08/21 05:33:53;;;;;;;4.43;3.97;;;;;;;;;;5085984;28;20444;-76
2022/08/21 05:36:20;;;;;;;3.70;3.37;;;;;;;;;;5089029;28;21116;-76
2022/08/21 05:38:47;;;;;;;4.30;3.87;;;;;;;;;;5091806;28;20490;-75
2022/08/21 05:41:15;;;;;;;4.73;4.20;;;;;;;;;;5092902;28;20946;-76
2022/08/21 05:43:42;;;;;;;7.20;4.47;;;;;;;;;;5094147;28;20480;-75
2022/08/21 05:46:10;;;;;;;4.33;3.93;;;;;;;;;;5091654;28;20524;-76
2022/08/21 05:48:37;;;;;;;5.87;5.20;;;;;;;;;;5091846;28;20500;-75
2022/08/21 05:51:06;;;;;;;4.23;3.83;;;;;;;;;;5091664;28;20943;-75
2022/08/21 05:53:33;;;;;;;5.70;4.40;;;;;;;;;;5091526;28;20448;-75
2022/08/21 05:56:00;;;;;;;5.57;4.10;;;;;;;;;;5091892;28;20456;-76
2022/08/21 05:58:28;;;;;;;5.60;3.80;;;;;;;;;;5090960;28;20528;-76
2022/08/21 06:00:55;;;;;;;5.10;4.60;;;;;;;;;;5091034;28;20511;-74
2022/08/21 06:03:23;;;;;;;5.33;4.43;;;;;;;;;;5092153;28;21028;-76
2022/08/21 06:05:50;;;;;;;4.67;4.07;;;;;;;;;;5094084;28;20920;-75
2022/08/21 06:08:18;;;;;;;5.10;3.90;;;;;;;;;;5091560;28;20456;-76
2022/08/21 06:10:45;;;;;;;3.97;3.67;;;;;;;;;;5090944;28;20440;-76
2022/08/21 06:13:13;;;;;;;4.93;4.43;;;;;;;;;;5090731;28;20508;-76
2022/08/21 06:15:44;;;;;;;5.20;4.70;;;;;;;;;;5091853;28;20471;-75
2022/08/21 06:18:11;;;;;;;4.67;4.27;;;;;;;;;;5092889;28;20923;-76
2022/08/21 06:20:39;;;;;;;5.07;4.30;;;;;;;;;;5091888;28;20456;-75
2022/08/21 06:23:06;;;;;;;4.77;4.30;;;;;;;;;;5090839;28;20436;-76
2022/08/21 06:25:35;;;;;;;6.27;4.30;;;;;;;;;;5091338;28;20479;-76
2022/08/21 06:28:03;;;;;;;4.90;3.90;;;;;;;;;;5091570;28;20545;-76
2022/08/21 06:30:30;;;;;;;6.60;3.93;;;;;;;;;;5091165;28;20847;-76
2022/08/21 06:32:58;;;;;;;8.03;3.93;;;;;;;;;;5100190;28;20443;-76
2022/08/21 06:35:25;;;;;;;5.17;4.40;;;;;;;;;;5106745;28;20468;-76
2022/08/21 06:37:52;;;;;;;5.67;4.10;;;;;;;;;;5108109;28;20548;-75
2022/08/21 06:40:19;;;;;;;4.20;3.83;;;;;;;;;;5108567;28;20459;-77
2022/08/21 06:42:46;;;;;;;4.33;4.00;;;;;;;;;;5099448;28;20459;-76
2022/08/21 06:45:14;;;;;;;6.17;4.10;;;;;;;;;;5101608;28;20486;-76
2022/08/21 06:47:41;;;;;;;6.53;4.33;;;;;;;;;;5105103;28;20512;-75
2022/08/21 06:50:10;;;;;;;5.10;4.30;;;;;;;;;;5105563;28;20470;-75
2022/08/21 06:52:37;;;;;;;4.43;3.70;;;;;;;;;;5101982;28;20466;-76
2022/08/21 06:55:05;;;;;;;7.13;4.83;;;;;;;;;;5104018;28;20438;-75
2022/08/21 06:57:32;;;;;;;3.90;3.60;;;;;;;;;;5100196;28;20443;-76
2022/08/21 06:59:59;;;;;;;4.50;4.10;;;;;;;;;;5091644;28;20855;-75
2022/08/21 07:02:27;;;;;;;4.50;4.10;;;;;;;;;;5091759;28;20443;-77
2022/08/21 07:04:54;;;;;;;5.63;4.07;;;;;;;;;;5091534;28;20897;-77
2022/08/21 07:07:22;;;;;;;5.87;4.30;;;;;;;;;;5091339;28;20460;-76
2022/08/21 07:09:49;;;;;;;5.13;4.23;;;;;;;;;;5090918;28;20447;-76
2022/08/21 07:12:16;;;;;;;9.13;8.23;;;;;;;;;;5091646;28;20459;-77
2022/08/21 07:14:43;;;;;;;5.50;5.00;;;;;;;;;;5091094;28;20509;-76
2022/08/21 07:17:10;;;;;;;12.70;9.50;;;;;;;;;;5103648;28;20502;-76
2022/08/21 07:19:37;;;;;;;19.60;17.83;;;;;;;;;;5105029;28;20458;-76
2022/08/21 07:22:04;;;;;;;4.60;4.20;;;;;;;;;;5105260;28;20530;-75
2022/08/21 07:24:33;;;;;;;4.57;4.20;;;;;;;;;;5101607;28;20532;-76
2022/08/21 07:27:00;;;;;;;4.77;4.10;;;;;;;;;;5098909;28;21000;-76
2022/08/21 07:29:27;;;;;;;4.80;4.30;;;;;;;;;;5102332;28;20444;-75
2022/08/21 07:31:54;;;;;;;5.53;4.30;;;;;;;;;;5099447;28;20473;-76
2022/08/21 07:34:21;;;;;;;8.43;5.70;;;;;;;;;;5100090;28;20444;-77
2022/08/21 07:36:48;;;;;;;4.77;4.37;;;;;;;;;;5096136;28;20470;-78
2022/08/21 07:39:15;;;;;;;4.33;4.03;;;;;;;;;;5091289;28;20931;-77
2022/08/21 07:41:43;;;;;;;6.70;5.80;;;;;;;;;;5091507;28;20447;-78
2022/08/21 07:44:10;;;;;;;4.90;4.50;;;;;;;;;;5090968;28;20447;-77
2022/08/21 07:46:37;;;;;;;7.83;4.90;;;;;;;;;;5090811;28;20496;-78
2022/08/21 07:49:04;;;;;;;7.77;4.33;;;;;;;;;;5091212;28;20512;-76
2022/08/21 07:51:33;;;;;;;4.90;4.10;;;;;;;;;;5091227;28;20444;-76
2022/08/21 07:54:01;;;;;;;6.60;4.10;;;;;;;;;;5090302;28;20475;-78
2022/08/21 07:56:28;;;;;;;7.20;4.60;;;;;;;;;;5092133;28;20464;-77
2022/08/21 07:58:57;;;;;;;6.00;4.37;;;;;;;;;;5090526;28;20447;-77
2022/08/21 08:01:24;;;;;;;19.97;18.07;;;;;;;;;;5090363;28;20448;-75
2022/08/21 08:03:51;;;;;;;5.27;4.80;;;;;;;;;;5089793;28;20552;-76
2022/08/21 08:06:19;;;;;;;7.13;4.83;;;;;;;;;;5089795;28;20598;-76
2022/08/21 08:08:47;;;;;;;4.87;4.47;;;;;;;;;;5090025;28;20534;-76
2022/08/21 08:11:15;;;;;;;4.97;4.17;;;;;;;;;;5077870;28;20437;-77
2022/08/21 08:13:43;;;;;;;4.43;4.03;;;;;;;;;;5069209;28;20464;-76
2022/08/21 08:16:11;;;;;;;5.00;4.50;;;;;;;;;;5069661;28;20522;-76
2022/08/21 08:18:39;;;;;;;5.43;4.37;;;;;;;;;;5069178;28;20444;-77
2022/08/21 08:21:06;;;;;;;4.63;4.27;;;;;;;;;;5069564;28;20452;-76
2022/08/21 08:23:33;;;;;;;4.77;4.37;;;;;;;;;;5071801;28;20456;-76
2022/08/21 08:26:02;;;;;;;4.27;3.97;;;;;;;;;;5072739;28;21062;-76
2022/08/21 08:28:29;;;;;;;5.43;4.27;;;;;;;;;;5072806;28;20441;-76
2022/08/21 08:30:56;;;;;;;8.83;4.10;;;;;;;;;;5072973;28;20445;-77
2022/08/21 08:33:24;;;;;;;5.57;4.43;;;;;;;;;;5072315;28;20521;-77
2022/08/21 08:35:52;;;;;;;4.10;3.70;;;;;;;;;;5072950;28;20489;-75
2022/08/21 08:38:21;;;;;;;6.70;4.73;;;;;;;;;;5073059;28;20445;-77
2022/08/21 08:40:52;;;;;;;4.50;3.73;;;;;;;;;;5073139;28;20440;-77
2022/08/21 08:43:20;;;;;;;4.40;4.10;;;;;;;;;;5072357;28;20479;-76
2022/08/21 08:45:49;;;;;;;4.20;3.60;;;;;;;;;;5072405;28;20500;-76
2022/08/21 08:48:23;;;;;;;5.07;4.30;;;;;;;;;;5074880;28;20756;-76
2022/08/21 08:50:56;;;;;;;4.47;4.03;;;;;;;;;;5075294;28;20471;-76
2022/08/21 08:53:26;;;;;;;5.00;4.43;;;;;;;;;;5072160;28;20456;-78
2022/08/21 08:55:55;;;;;;;3.83;3.53;;;;;;;;;;5072467;28;20460;-76
2022/08/21 08:58:24;;;;;;;5.13;4.63;;;;;;;;;;5071986;28;20972;-76
2022/08/21 09:00:53;;;;;;;6.07;4.03;;;;;;;;;;5072436;28;20470;-77
2022/08/21 09:03:21;;;;;;;6.90;3.90;;;;;;;;;;5072177;28;20445;-76
2022/08/21 09:05:51;;;;;;;4.53;4.07;;;;;;;;;;5072304;28;21056;-76
2022/08/21 09:08:26;;;;;;;5.13;4.53;;;;;;;;;;5072516;28;20459;-75
2022/08/21 09:11:05;;;;;;;4.50;4.10;;;;;;;;;;5084728;28;20493;-76
2022/08/21 09:13:40;;;;;;;4.57;4.17;;;;;;;;;;5096013;28;20493;-75
2022/08/21 09:16:13;;;;;;;4.83;4.40;;;;;;;;;;5092474;28;20911;-76
2022/08/21 09:18:46;;;;;;;5.60;4.57;;;;;;;;;;5092961;28;20448;-76
2022/08/21 09:21:17;;;;;;;8.10;4.60;;;;;;;;;;5092271;28;21232;-75
2022/08/21 09:23:51;;;;;;;5.40;4.20;;;;;;;;;;5103129;28;20452;-75
2022/08/21 09:26:19;;;;;;;6.00;4.00;;;;;;;;;;5108625;28;20476;-76
2022/08/21 09:28:47;;;;;;;5.00;4.50;;;;;;;;;;5101155;28;20447;-76
2022/08/21 09:31:18;;;;;;;5.93;4.37;;;;;;;;;;5091799;28;20970;-76
2022/08/21 09:33:45;;;;;;;4.60;4.20;;;;;;;;;;5091531;28;20448;-77
2022/08/21 09:36:12;;;;;;;5.43;4.03;;;;;;;;;;5092662;28;20513;-76
2022/08/21 09:38:39;;;;;;;5.47;3.67;;;;;;;;;;5092030;28;20440;-77
2022/08/21 09:41:09;;;;;;;7.23;4.40;;;;;;;;;;5092057;28;20869;-76
2022/08/21 09:43:37;;;;;;;5.47;4.10;;;;;;;;;;5091565;28;20443;-76
2022/08/21 09:46:06;;;;;;;4.47;4.03;;;;;;;;;;5082217;28;20552;-77
2022/08/21 09:48:40;;;;;;;4.33;3.83;;;;;;;;;;5090934;28;20448;-77
2022/08/21 09:51:08;;;;;;;3.50;3.20;;;;;;;;;;5091850;28;20427;-77
2022/08/21 09:53:36;;;;;;;6.43;4.53;;;;;;;;;;5091575;28;20478;-77
2022/08/21 09:58:49;;;;;;;5.00;4.07;;;;;;;;;;5057290;28;20427;-77
2022/08/21 10:01:17;;;;;;;6.97;4.60;;;;;;;;;;5091513;28;20440;-76
2022/08/21 10:03:45;;;;;;;3.47;3.17;;;;;;;;;;5091633;28;20493;-76
2022/08/21 10:06:21;;;;;;;5.97;3.90;;;;;;;;;;5092613;28;20487;-77
2022/08/21 10:08:48;;;;;;;5.50;4.20;;;;;;;;;;5091403;28;21008;-76
2022/08/21 10:11:17;;;;;;;6.80;3.97;;;;;;;;;;5091172;28;20435;-75
2022/08/21 10:13:50;;;;;;;4.53;4.13;;;;;;;;;;5091266;28;20440;-77
2022/08/21 10:16:24;;;;;;;6.07;3.73;;;;;;;;;;5091155;28;20996;-76
2022/08/21 10:18:57;;;;;;;5.33;3.97;;;;;;;;;;5091004;28;20451;-76
2022/08/21 10:21:27;;;;;;;4.80;3.80;;;;;;;;;;5090812;28;20509;-76
2022/08/21 10:24:02;;;;;;;6.20;3.87;;;;;;;;;;5090919;28;20443;-77
2022/08/21 10:26:37;;;;;;;4.33;4.00;;;;;;;;;;5090849;28;20522;-76
2022/08/21 10:29:10;;;;;;;6.77;4.47;;;;;;;;;;5090842;28;20447;-76
2022/08/21 10:31:43;;;;;;;4.20;3.73;;;;;;;;;;5091059;28;20478;-76
2022/08/21 10:34:16;;;;;;;5.80;4.37;;;;;;;;;;5090446;28;20876;-75
2022/08/21 10:36:48;;;;;;;5.63;4.00;;;;;;;;;;5090846;28;20460;-76
2022/08/21 10:39:19;;;;;;;6.40;4.17;;;;;;;;;;5090784;28;20911;-75
2022/08/21 10:41:56;;;;;;;6.90;4.03;;;;;;;;;;5090847;28;20521;-76
2022/08/21 10:44:31;;;;;;;4.83;3.97;;;;;;;;;;5089026;28;20769;-76
2022/08/21 10:47:02;;;;;;;4.43;3.90;;;;;;;;;;5074775;28;21044;-76
2022/08/21 10:49:36;;;;;;;8.90;4.40;;;;;;;;;;5088727;28;20845;-76
2022/08/21 10:52:11;;;;;;;4.17;3.77;;;;;;;;;;5090257;28;20443;-75
2022/08/21 10:54:42;;;;;;;5.17;3.80;;;;;;;;;;5090544;28;20504;-76
2022/08/21 10:57:13;;;;;;;5.43;3.80;;;;;;;;;;5089971;28;20467;-76
2022/08/21 10:59:45;;;;;;;4.73;3.87;;;;;;;;;;5090225;28;20448;-75
2022/08/21 11:02:16;;;;;;;6.60;3.87;;;;;;;;;;5090385;28;20440;-75
2022/08/21 11:04:49;;;;;;;6.40;3.70;;;;;;;;;;5069812;28;20456;-76
2022/08/21 11:07:19;;;;;;;5.20;4.03;;;;;;;;;;5069509;28;20913;-76
2022/08/21 11:09:48;;;;;;;6.10;4.00;;;;;;;;;;5070113;28;20911;-76
2022/08/21 11:12:21;;;;;;;9.43;3.70;;;;;;;;;;5070265;28;20506;-75
2022/08/21 11:14:53;;;;;;;6.30;3.87;;;;;;;;;;5069939;28;20444;-75
2022/08/21 11:17:24;;;;;;;5.37;4.17;;;;;;;;;;5070042;28;20445;-75
2022/08/21 11:19:54;;;;;;;6.03;3.63;;;;;;;;;;5070337;28;20446;-75
2022/08/21 11:22:25;;;;;;;5.37;3.87;;;;;;;;;;5070147;28;20441;-77
2022/08/21 11:24:56;;;;;;;9.00;3.90;;;;;;;;;;5069485;28;20842;-75
2022/08/21 11:27:26;;;;;;;5.33;4.10;;;;;;;;;;5069930;28;20487;-75
2022/08/21 11:29:56;;;;;;;8.10;3.80;;;;;;;;;;5070084;28;20525;-77
2022/08/21 11:32:32;;;;;;;4.50;3.97;;;;;;;;;;5070167;28;20451;-75
2022/08/21 11:35:03;;;;;;;7.17;4.17;;;;;;;;;;5082836;28;20948;-75
2022/08/21 11:37:37;;;;;;;5.50;4.10;;;;;;;;;;5089991;28;20839;-77
2022/08/21 11:40:07;;;;;;;4.73;3.90;;;;;;;;;;5085182;28;20436;-75
2022/08/21 11:42:39;;;;;;;4.77;4.30;;;;;;;;;;5089826;28;20451;-76
2022/08/21 11:45:15;;;;;;;5.80;3.93;;;;;;;;;;5089968;28;20443;-76
2022/08/21 11:47:47;;;;;;;4.90;3.83;;;;;;;;;;5090475;28;20534;-76
2022/08/21 11:50:15;;;;;;;4.00;3.70;;;;;;;;;;5090247;28;20861;-76
2022/08/21 11:52:44;;;;;;;5.70;3.60;;;;;;;;;;5090040;28;20435;-76
2022/08/21 11:55:14;;;;;;;5.27;4.20;;;;;;;;;;5090163;28;20443;-76
2022/08/21 11:57:46;;;;;;;4.60;4.00;;;;;;;;;;5094785;28;20860;-76
2022/08/21 12:00:18;;;;;;;3.50;3.30;;;;;;;;;;5094679;28;20971;-75
2022/08/21 12:02:48;;;;;;;4.50;4.03;;;;;;;;;;5094166;28;21087;-76
2022/08/21 12:05:24;;;;;;;4.73;3.20;;;;;;;;;;5093772;28;20459;-76
2022/08/21 12:08:01;;;;;;;4.03;3.63;;;;;;;;;;5093827;28;20461;-76
2022/08/21 12:10:33;;;;;;;4.37;3.50;;;;;;;;;;5093576;28;20447;-76
2022/08/21 12:13:08;;;;;;;6.43;3.13;;;;;;;;;;5093023;28;20959;-75
2022/08/21 12:15:36;;;;;;;3.83;3.37;;;;;;;;;;5093231;28;20830;-77
2022/08/21 12:18:05;;;;;;;5.10;3.40;;;;;;;;;;5094893;28;20447;-76
2022/08/21 12:20:37;;;;;;;4.33;3.50;;;;;;;;;;5095821;28;20871;-76
2022/08/21 12:23:06;;;;;;;5.27;4.17;;;;;;;;;;5091868;28;20448;-76
2022/08/21 12:25:39;;;;;;;3.97;3.57;;;;;;;;;;5093101;28;20998;-76
2022/08/21 12:28:08;;;;;;;3.70;3.33;;;;;;;;;;5093360;28;20493;-76
2022/08/21 12:30:38;;;;;;;3.83;3.23;;;;;;;;;;5093178;28;20538;-76
2022/08/21 12:33:06;;;;;;;3.63;3.33;;;;;;;;;;5093257;28;20540;-76
2022/08/21 12:35:34;;;;;;;7.30;3.73;;;;;;;;;;5093338;28;20455;-76
2022/08/21 12:38:05;;;;;;;3.50;3.20;;;;;;;;;;5093284;28;20448;-77
2022/08/21 12:40:33;;;;;;;5.77;3.50;;;;;;;;;;5093043;28;20447;-77
2022/08/21 12:43:01;;;;;;;4.53;3.60;;;;;;;;;;5092595;28;20447;-76
2022/08/21 12:45:30;;;;;;;5.40;3.40;;;;;;;;;;5092614;28;20521;-76
2022/08/21 12:48:00;;;;;;;7.23;3.60;;;;;;;;;;5092585;28;20424;-74
2022/08/21 12:50:33;;;;;;;8.70;4.00;;;;;;;;;;5092911;28;20439;-76
2022/08/21 12:53:03;;;;;;;5.20;3.57;;;;;;;;;;5090146;28;20936;-75
2022/08/21 12:55:32;;;;;;;3.87;3.57;;;;;;;;;;5084043;28;20499;-77
2022/08/21 12:57:59;;;;;;;4.03;3.63;;;;;;;;;;5086507;28;20448;-76
2022/08/21 13:00:30;;;;;;;4.17;3.67;;;;;;;;;;5089005;28;20451;-76
2022/08/21 13:02:59;;;;;;;4.13;3.73;;;;;;;;;;5085491;28;21153;-77
2022/08/21 13:05:30;;;;;;;4.07;3.27;;;;;;;;;;5090504;28;20524;-76
2022/08/21 13:07:57;;;;;;;3.00;2.80;;;;;;;;;;5086490;28;20550;-75
2022/08/21 13:10:25;;;;;;;7.13;3.60;;;;;;;;;;5085263;28;20437;-76
2022/08/21 13:12:55;;;;;;;7.27;3.57;;;;;;;;;;5091735;28;20517;-75
2022/08/21 13:15:25;;;;;;;4.10;3.50;;;;;;;;;;5091312;28;20463;-75
2022/08/21 13:17:52;;;;;;;4.80;4.30;;;;;;;;;;5093777;28;20446;-76
2022/08/21 13:20:23;;;;;;;5.60;3.93;;;;;;;;;;5093764;28;20855;-76
2022/08/21 13:22:50;;;;;;;4.87;4.07;;;;;;;;;;5093447;28;20447;-75
2022/08/21 13:25:18;;;;;;;5.27;3.70;;;;;;;;;;5094015;28;20471;-75
2022/08/21 13:27:57;;;;;;;3.70;3.40;;;;;;;;;;5093571;28;20476;-76
2022/08/21 13:30:24;;;;;;;5.47;4.07;;;;;;;;;;5092336;28;20455;-74
2022/08/21 13:32:53;;;;;;;3.97;3.57;;;;;;;;;;5091612;28;20482;-75
2022/08/21 13:35:23;;;;;;;6.20;3.70;;;;;;;;;;5091904;28;20456;-75
2022/08/21 13:37:51;;;;;;;4.07;3.70;;;;;;;;;;5092592;28;20484;-76
2022/08/21 13:40:20;;;;;;;4.27;3.13;;;;;;;;;;5092423;28;20436;-77
2022/08/21 13:42:49;;;;;;;3.70;3.40;;;;;;;;;;5091907;28;20493;-77
2022/08/21 13:45:18;;;;;;;4.73;4.33;;;;;;;;;;5091726;28;20550;-76
2022/08/21 13:47:47;;;;;;;5.43;3.27;;;;;;;;;;5091627;28;20479;-77
2022/08/21 13:50:15;;;;;;;3.67;3.33;;;;;;;;;;5091059;28;20460;-76
2022/08/21 13:52:51;;;;;;;4.57;3.43;;;;;;;;;;5093318;28;20579;-77
2022/08/21 13:55:18;;;;;;;6.30;3.43;;;;;;;;;;5093286;28;20478;-76
2022/08/21 13:57:45;;;;;;;5.10;4.07;;;;;;;;;;5093023;28;20468;-77
2022/08/21 14:00:17;;;;;;;5.30;3.40;;;;;;;;;;5092965;28;20439;-76
2022/08/21 14:02:46;;;;;;;4.40;3.63;;;;;;;;;;5092743;28;20440;-75
2022/08/21 14:05:17;;;;;;;4.50;3.70;;;;;;;;;;5092763;28;20516;-75
2022/08/21 14:07:45;;;;;;;3.70;3.40;;;;;;;;;;5092588;28;20493;-76
2022/08/21 14:10:15;;;;;;;3.77;3.23;;;;;;;;;;5089137;28;21107;-77
2022/08/21 14:12:43;;;;;;;5.80;3.20;;;;;;;;;;5072445;28;20936;-76
2022/08/21 14:15:11;;;;;;;3.87;3.47;;;;;;;;;;5076946;28;20459;-74
2022/08/21 14:17:41;;;;;;;3.70;3.40;;;;;;;;;;5098613;28;20421;-74
2022/08/21 14:20:09;;;;;;;6.70;3.67;;;;;;;;;;5097626;28;20417;-76
2022/08/21 14:22:38;;;;;;;3.87;3.00;;;;;;;;;;5098314;28;20425;-76
2022/08/21 14:25:06;;;;;;;3.67;3.37;;;;;;;;;;5097993;28;20425;-75
2022/08/21 14:27:35;;;;;;;5.60;3.13;;;;;;;;;;5082450;28;20504;-77
2022/08/21 14:30:03;;;;;;;3.43;3.23;;;;;;;;;;5072770;28;20815;-77
2022/08/21 14:32:32;;;;;;;3.60;3.23;;;;;;;;;;5073140;28;20518;-76
2022/08/21 14:34:59;;;;;;;5.00;3.27;;;;;;;;;;5072828;28;20495;-77
2022/08/21 14:37:26;;;;;;;3.30;3.00;;;;;;;;;;5071977;28;20499;-77
2022/08/21 14:39:53;;;;;;;4.33;3.50;;;;;;;;;;5071604;28;20440;-77
2022/08/21 14:42:21;;;;;;;6.00;3.37;;;;;;;;;;5072108;28;20518;-76
2022/08/21 14:44:49;;;;;;;4.13;3.50;;;;;;;;;;5071742;28;20441;-77
2022/08/21 14:47:16;;;;;;;5.17;3.47;;;;;;;;;;5071725;28;20541;-76
2022/08/21 14:49:43;;;;;;;4.97;3.43;;;;;;;;;;5072660;28;20629;-76
2022/08/21 14:52:10;;;;;;;4.87;3.30;;;;;;;;;;5072296;28;20531;-77
2022/08/21 14:54:37;;;;;;;4.10;3.10;;;;;;;;;;5072613;28;20437;-78
2022/08/21 14:57:08;;;;;;;3.77;3.47;;;;;;;;;;5071788;28;20464;-76
2022/08/21 14:59:36;;;;;;;4.40;3.23;;;;;;;;;;5076156;28;20525;-77
2022/08/21 15:02:04;;;;;;;4.00;3.20;;;;;;;;;;5092663;28;20448;-77